sensor_id;sensor_type;location;lat;lon;timestamp;temperature;humidity
71801;HTU21D;59647;55.838;37.292;2022-07-10T00:01:28;19.43;65.75
71801;HTU21D;59647;55.838;37.292;2022-07-10T00:03:54;19.42;66.04
71801;HTU21D;59647;55.838;37.292;2022-07-10T00:06:20;19.42;66.07
71801;HTU21D;59647;55.838;37.292;2022-07-10T00:08:46;19.41;66.13
71801;HTU21D;59647;55.838;37.292;2022-07-10T00:11:12;19.28;67.83
71801;HTU21D;59647;55.838;37.292;2022-07-10T00:13:37;19.17;67.01
71801;HTU21D;59647;55.838;37.292;2022-07-10T00:16:03;19.20;66.83
71801;HTU21D;59647;55.838;37.292;2022-07-10T00:18:30;19.24;66.30
71801;HTU21D;59647;55.838;37.292;2022-07-10T00:20:56;19.26;66.29
71801;HTU21D;59647;55.838;37.292;2022-07-10T00:23:21;19.24;67.20
71801;HTU21D;59647;55.838;37.292;2022-07-10T00:25:47;19.27;66.75
71801;HTU21D;59647;55.838;37.292;2022-07-10T00:28:13;19.23;66.93
71801;HTU21D;59647;55.838;37.292;2022-07-10T00:30:39;19.18;67.22
71801;HTU21D;59647;55.838;37.292;2022-07-10T00:33:04;19.15;67.39
71801;HTU21D;59647;55.838;37.292;2022-07-10T00:35:30;19.10;66.85
71801;HTU21D;59647;55.838;37.292;2022-07-10T00:37:56;19.05;67.02
71801;HTU21D;59647;55.838;37.292;2022-07-10T00:40:22;19.01;67.23
71801;HTU21D;59647;55.838;37.292;2022-07-10T00:42:48;19.01;67.06
71801;HTU21D;59647;55.838;37.292;2022-07-10T00:45:13;19.01;66.80
71801;HTU21D;59647;55.838;37.292;2022-07-10T00:47:39;19.02;66.64
71801;HTU21D;59647;55.838;37.292;2022-07-10T00:50:06;19.00;66.88
71801;HTU21D;59647;55.838;37.292;2022-07-10T00:52:33;19.00;66.69
71801;HTU21D;59647;55.838;37.292;2022-07-10T00:55:05;19.05;65.95
71801;HTU21D;59647;55.838;37.292;2022-07-10T00:57:32;18.97;65.71
71801;HTU21D;59647;55.838;37.292;2022-07-10T00:59:58;18.78;65.97
71801;HTU21D;59647;55.838;37.292;2022-07-10T01:02:24;18.74;66.85
71801;HTU21D;59647;55.838;37.292;2022-07-10T01:04:50;18.73;67.14
71801;HTU21D;59647;55.838;37.292;2022-07-10T01:07:17;18.77;67.30
71801;HTU21D;59647;55.838;37.292;2022-07-10T01:09:43;18.73;67.15
71801;HTU21D;59647;55.838;37.292;2022-07-10T01:12:10;18.78;66.68
71801;HTU21D;59647;55.838;37.292;2022-07-10T01:14:37;18.77;69.03
71801;HTU21D;59647;55.838;37.292;2022-07-10T01:17:07;18.78;68.96
71801;HTU21D;59647;55.838;37.292;2022-07-10T01:19:33;18.79;69.33
71801;HTU21D;59647;55.838;37.292;2022-07-10T01:21:58;18.84;69.22
71801;HTU21D;59647;55.838;37.292;2022-07-10T01:24:26;18.88;67.95
71801;HTU21D;59647;55.838;37.292;2022-07-10T01:26:52;18.88;68.16
71801;HTU21D;59647;55.838;37.292;2022-07-10T01:29:18;18.84;69.43
71801;HTU21D;59647;55.838;37.292;2022-07-10T01:31:43;18.81;68.41
71801;HTU21D;59647;55.838;37.292;2022-07-10T01:34:10;18.80;70.06
71801;HTU21D;59647;55.838;37.292;2022-07-10T01:36:36;18.85;68.75
71801;HTU21D;59647;55.838;37.292;2022-07-10T01:39:04;18.89;69.55
71801;HTU21D;59647;55.838;37.292;2022-07-10T01:41:30;18.94;69.06
71801;HTU21D;59647;55.838;37.292;2022-07-10T01:43:56;19.00;68.84
71801;HTU21D;59647;55.838;37.292;2022-07-10T01:46:21;19.06;69.18
71801;HTU21D;59647;55.838;37.292;2022-07-10T01:48:48;19.07;69.40
71801;HTU21D;59647;55.838;37.292;2022-07-10T01:51:13;19.09;69.33
71801;HTU21D;59647;55.838;37.292;2022-07-10T01:53:39;19.10;69.94
71801;HTU21D;59647;55.838;37.292;2022-07-10T01:56:11;19.16;69.52
71801;HTU21D;59647;55.838;37.292;2022-07-10T01:58:37;19.20;69.09
71801;HTU21D;59647;55.838;37.292;2022-07-10T02:01:04;19.27;68.77
71801;HTU21D;59647;55.838;37.292;2022-07-10T02:03:31;19.32;68.42
71801;HTU21D;59647;55.838;37.292;2022-07-10T02:06:16;19.39;68.24
71801;HTU21D;59647;55.838;37.292;2022-07-10T02:08:42;19.42;68.24
71801;HTU21D;59647;55.838;37.292;2022-07-10T02:11:08;19.48;67.93
71801;HTU21D;59647;55.838;37.292;2022-07-10T02:13:34;19.56;68.05
71801;HTU21D;59647;55.838;37.292;2022-07-10T02:15:59;19.61;67.83
71801;HTU21D;59647;55.838;37.292;2022-07-10T02:18:26;19.68;67.75
71801;HTU21D;59647;55.838;37.292;2022-07-10T02:20:52;19.77;67.59
71801;HTU21D;59647;55.838;37.292;2022-07-10T02:23:18;19.85;67.56
71801;HTU21D;59647;55.838;37.292;2022-07-10T02:25:44;19.92;67.49
71801;HTU21D;59647;55.838;37.292;2022-07-10T02:28:10;20.01;67.53
71801;HTU21D;59647;55.838;37.292;2022-07-10T02:30:36;20.09;67.51
71801;HTU21D;59647;55.838;37.292;2022-07-10T02:33:02;20.18;67.43
71801;HTU21D;59647;55.838;37.292;2022-07-10T02:35:28;20.28;67.19
71801;HTU21D;59647;55.838;37.292;2022-07-10T02:37:54;20.34;67.41
71801;HTU21D;59647;55.838;37.292;2022-07-10T02:40:20;20.41;67.23
71801;HTU21D;59647;55.838;37.292;2022-07-10T02:42:45;20.46;66.93
71801;HTU21D;59647;55.838;37.292;2022-07-10T02:45:11;20.48;66.63
71801;HTU21D;59647;55.838;37.292;2022-07-10T02:47:37;20.54;66.47
71801;HTU21D;59647;55.838;37.292;2022-07-10T02:50:03;20.57;66.40
71801;HTU21D;59647;55.838;37.292;2022-07-10T02:52:29;20.61;66.65
71801;HTU21D;59647;55.838;37.292;2022-07-10T02:54:57;20.65;66.14
71801;HTU21D;59647;55.838;37.292;2022-07-10T02:57:23;20.72;66.31
71801;HTU21D;59647;55.838;37.292;2022-07-10T02:59:49;20.81;66.07
71801;HTU21D;59647;55.838;37.292;2022-07-10T03:02:15;20.91;66.01
71801;HTU21D;59647;55.838;37.292;2022-07-10T03:04:41;21.02;66.24
71801;HTU21D;59647;55.838;37.292;2022-07-10T03:07:07;21.10;66.11
71801;HTU21D;59647;55.838;37.292;2022-07-10T03:09:33;21.15;66.04
71801;HTU21D;59647;55.838;37.292;2022-07-10T03:11:59;21.23;65.94
71801;HTU21D;59647;55.838;37.292;2022-07-10T03:14:26;21.25;65.70
71801;HTU21D;59647;55.838;37.292;2022-07-10T03:16:51;21.30;65.37
71801;HTU21D;59647;55.838;37.292;2022-07-10T03:19:17;21.33;65.17
71801;HTU21D;59647;55.838;37.292;2022-07-10T03:21:43;21.37;64.95
71801;HTU21D;59647;55.838;37.292;2022-07-10T03:24:10;21.42;64.80
71801;HTU21D;59647;55.838;37.292;2022-07-10T03:26:35;21.43;64.19
71801;HTU21D;59647;55.838;37.292;2022-07-10T03:29:01;21.44;64.56
71801;HTU21D;59647;55.838;37.292;2022-07-10T03:31:27;21.48;64.40
71801;HTU21D;59647;55.838;37.292;2022-07-10T03:33:53;21.48;64.31
71801;HTU21D;59647;55.838;37.292;2022-07-10T03:36:19;21.51;64.38
71801;HTU21D;59647;55.838;37.292;2022-07-10T03:38:45;21.59;64.28
71801;HTU21D;59647;55.838;37.292;2022-07-10T03:41:13;21.68;64.21
71801;HTU21D;59647;55.838;37.292;2022-07-10T03:43:39;21.70;64.32
71801;HTU21D;59647;55.838;37.292;2022-07-10T03:46:05;21.68;64.33
71801;HTU21D;59647;55.838;37.292;2022-07-10T03:48:30;21.68;64.59
71801;HTU21D;59647;55.838;37.292;2022-07-10T03:50:57;21.65;64.43
71801;HTU21D;59647;55.838;37.292;2022-07-10T03:53:24;21.73;64.34
71801;HTU21D;59647;55.838;37.292;2022-07-10T03:55:50;21.78;64.18
71801;HTU21D;59647;55.838;37.292;2022-07-10T03:58:16;21.87;63.85
71801;HTU21D;59647;55.838;37.292;2022-07-10T04:00:41;21.90;63.37
71801;HTU21D;59647;55.838;37.292;2022-07-10T04:03:08;21.83;63.38
71801;HTU21D;59647;55.838;37.292;2022-07-10T04:05:35;21.84;63.22
71801;HTU21D;59647;55.838;37.292;2022-07-10T04:08:02;21.81;63.04
71801;HTU21D;59647;55.838;37.292;2022-07-10T04:10:29;21.78;63.02
71801;HTU21D;59647;55.838;37.292;2022-07-10T04:12:55;21.78;63.15
71801;HTU21D;59647;55.838;37.292;2022-07-10T04:15:21;21.72;62.98
71801;HTU21D;59647;55.838;37.292;2022-07-10T04:17:50;21.55;63.32
71801;HTU21D;59647;55.838;37.292;2022-07-10T04:20:17;21.38;64.31
71801;HTU21D;59647;55.838;37.292;2022-07-10T04:22:43;21.22;64.46
71801;HTU21D;59647;55.838;37.292;2022-07-10T04:25:09;21.14;65.57
71801;HTU21D;59647;55.838;37.292;2022-07-10T04:27:36;21.08;65.68
71801;HTU21D;59647;55.838;37.292;2022-07-10T04:30:03;21.15;66.53
71801;HTU21D;59647;55.838;37.292;2022-07-10T04:32:29;21.20;65.83
71801;HTU21D;59647;55.838;37.292;2022-07-10T04:34:55;21.28;65.45
71801;HTU21D;59647;55.838;37.292;2022-07-10T04:37:21;21.33;65.25
71801;HTU21D;59647;55.838;37.292;2022-07-10T04:39:47;21.42;65.27
71801;HTU21D;59647;55.838;37.292;2022-07-10T04:42:13;21.47;64.99
71801;HTU21D;59647;55.838;37.292;2022-07-10T04:44:39;21.55;65.11
71801;HTU21D;59647;55.838;37.292;2022-07-10T04:47:05;21.64;64.78
71801;HTU21D;59647;55.838;37.292;2022-07-10T04:49:32;21.69;64.63
71801;HTU21D;59647;55.838;37.292;2022-07-10T04:51:58;21.76;64.48
71801;HTU21D;59647;55.838;37.292;2022-07-10T04:54:24;21.85;64.36
71801;HTU21D;59647;55.838;37.292;2022-07-10T04:56:50;21.95;64.24
71801;HTU21D;59647;55.838;37.292;2022-07-10T04:59:16;22.06;64.03
71801;HTU21D;59647;55.838;37.292;2022-07-10T05:01:42;22.10;64.02
71801;HTU21D;59647;55.838;37.292;2022-07-10T05:04:07;22.16;64.12
71801;HTU21D;59647;55.838;37.292;2022-07-10T05:06:34;22.28;64.10
71801;HTU21D;59647;55.838;37.292;2022-07-10T05:09:01;22.40;63.70
71801;HTU21D;59647;55.838;37.292;2022-07-10T05:11:27;22.52;63.44
71801;HTU21D;59647;55.838;37.292;2022-07-10T05:13:53;22.68;63.27
71801;HTU21D;59647;55.838;37.292;2022-07-10T05:16:19;22.83;62.89
71801;HTU21D;59647;55.838;37.292;2022-07-10T05:18:45;23.03;62.34
71801;HTU21D;59647;55.838;37.292;2022-07-10T05:21:11;23.14;61.82
71801;HTU21D;59647;55.838;37.292;2022-07-10T05:23:38;23.26;61.63
71801;HTU21D;59647;55.838;37.292;2022-07-10T05:26:04;23.38;61.62
71801;HTU21D;59647;55.838;37.292;2022-07-10T05:28:30;23.47;61.05
71801;HTU21D;59647;55.838;37.292;2022-07-10T05:30:56;23.49;61.15
71801;HTU21D;59647;55.838;37.292;2022-07-10T05:33:22;23.47;60.55
71801;HTU21D;59647;55.838;37.292;2022-07-10T05:35:48;23.56;60.55
71801;HTU21D;59647;55.838;37.292;2022-07-10T05:38:14;23.62;60.39
71801;HTU21D;59647;55.838;37.292;2022-07-10T05:40:39;23.67;60.06
71801;HTU21D;59647;55.838;37.292;2022-07-10T05:43:05;23.77;60.13
71801;HTU21D;59647;55.838;37.292;2022-07-10T05:45:31;23.71;59.64
71801;HTU21D;59647;55.838;37.292;2022-07-10T05:47:57;23.72;59.22
71801;HTU21D;59647;55.838;37.292;2022-07-10T05:50:23;23.79;58.95
71801;HTU21D;59647;55.838;37.292;2022-07-10T05:52:49;23.82;59.28
71801;HTU21D;59647;55.838;37.292;2022-07-10T05:55:15;23.84;59.01
71801;HTU21D;59647;55.838;37.292;2022-07-10T05:57:41;23.82;59.10
71801;HTU21D;59647;55.838;37.292;2022-07-10T06:00:07;23.83;58.92
71801;HTU21D;59647;55.838;37.292;2022-07-10T06:02:39;23.85;59.00
71801;HTU21D;59647;55.838;37.292;2022-07-10T06:05:06;23.86;59.03
71801;HTU21D;59647;55.838;37.292;2022-07-10T06:07:32;24.02;58.94
71801;HTU21D;59647;55.838;37.292;2022-07-10T06:09:57;24.13;58.64
71801;HTU21D;59647;55.838;37.292;2022-07-10T06:12:23;24.16;58.48
71801;HTU21D;59647;55.838;37.292;2022-07-10T06:14:49;24.20;57.91
71801;HTU21D;59647;55.838;37.292;2022-07-10T06:17:15;24.21;58.38
71801;HTU21D;59647;55.838;37.292;2022-07-10T06:19:41;24.40;57.35
71801;HTU21D;59647;55.838;37.292;2022-07-10T06:22:07;24.60;56.55
71801;HTU21D;59647;55.838;37.292;2022-07-10T06:24:51;24.73;57.36
71801;HTU21D;59647;55.838;37.292;2022-07-10T06:27:17;24.63;57.31
71801;HTU21D;59647;55.838;37.292;2022-07-10T06:29:42;24.69;57.30
71801;HTU21D;59647;55.838;37.292;2022-07-10T06:32:08;25.00;57.03
71801;HTU21D;59647;55.838;37.292;2022-07-10T06:34:43;25.31;56.64
71801;HTU21D;59647;55.838;37.292;2022-07-10T06:37:09;25.54;56.14
71801;HTU21D;59647;55.838;37.292;2022-07-10T06:39:35;25.44;54.71
71801;HTU21D;59647;55.838;37.292;2022-07-10T06:42:06;25.31;53.98
71801;HTU21D;59647;55.838;37.292;2022-07-10T06:44:40;25.30;55.53
71801;HTU21D;59647;55.838;37.292;2022-07-10T06:47:06;25.10;55.60
71801;HTU21D;59647;55.838;37.292;2022-07-10T06:49:52;25.04;55.74
71801;HTU21D;59647;55.838;37.292;2022-07-10T06:52:18;24.97;55.86
71801;HTU21D;59647;55.838;37.292;2022-07-10T06:54:44;24.99;56.07
71801;HTU21D;59647;55.838;37.292;2022-07-10T06:57:11;25.01;56.07
71801;HTU21D;59647;55.838;37.292;2022-07-10T06:59:37;25.10;56.21
71801;HTU21D;59647;55.838;37.292;2022-07-10T07:02:03;25.23;55.94
71801;HTU21D;59647;55.838;37.292;2022-07-10T07:04:29;25.42;55.90
71801;HTU21D;59647;55.838;37.292;2022-07-10T07:06:55;25.68;55.64
71801;HTU21D;59647;55.838;37.292;2022-07-10T07:09:20;25.98;55.38
71801;HTU21D;59647;55.838;37.292;2022-07-10T07:11:46;26.22;55.02
71801;HTU21D;59647;55.838;37.292;2022-07-10T07:14:13;26.40;54.81
71801;HTU21D;59647;55.838;37.292;2022-07-10T07:16:39;26.69;54.14
71801;HTU21D;59647;55.838;37.292;2022-07-10T07:19:09;27.09;53.27
71801;HTU21D;59647;55.838;37.292;2022-07-10T07:21:43;27.46;53.39
71801;HTU21D;59647;55.838;37.292;2022-07-10T07:24:27;27.79;52.61
71801;HTU21D;59647;55.838;37.292;2022-07-10T07:26:54;27.99;52.20
71801;HTU21D;59647;55.838;37.292;2022-07-10T07:29:19;28.08;51.81
71801;HTU21D;59647;55.838;37.292;2022-07-10T07:31:45;28.02;51.54
71801;HTU21D;59647;55.838;37.292;2022-07-10T07:34:11;27.99;50.66
71801;HTU21D;59647;55.838;37.292;2022-07-10T07:36:37;28.01;50.83
71801;HTU21D;59647;55.838;37.292;2022-07-10T07:39:04;28.09;51.08
71801;HTU21D;59647;55.838;37.292;2022-07-10T07:41:30;28.17;50.58
71801;HTU21D;59647;55.838;37.292;2022-07-10T07:43:56;28.20;50.02
71801;HTU21D;59647;55.838;37.292;2022-07-10T07:46:21;28.16;49.82
71801;HTU21D;59647;55.838;37.292;2022-07-10T07:48:47;28.11;49.66
71801;HTU21D;59647;55.838;37.292;2022-07-10T07:51:13;28.03;49.79
71801;HTU21D;59647;55.838;37.292;2022-07-10T07:53:39;28.00;49.85
71801;HTU21D;59647;55.838;37.292;2022-07-10T07:56:05;27.91;48.62
71801;HTU21D;59647;55.838;37.292;2022-07-10T07:58:31;27.84;49.67
71801;HTU21D;59647;55.838;37.292;2022-07-10T08:00:59;27.82;50.05
71801;HTU21D;59647;55.838;37.292;2022-07-10T08:03:26;27.86;50.14
71801;HTU21D;59647;55.838;37.292;2022-07-10T08:05:55;27.93;49.18
71801;HTU21D;59647;55.838;37.292;2022-07-10T08:08:22;27.87;49.74
71801;HTU21D;59647;55.838;37.292;2022-07-10T08:10:48;27.89;49.52
71801;HTU21D;59647;55.838;37.292;2022-07-10T08:13:14;27.90;49.40
71801;HTU21D;59647;55.838;37.292;2022-07-10T08:15:41;27.96;48.89
71801;HTU21D;59647;55.838;37.292;2022-07-10T08:18:08;27.98;49.10
71801;HTU21D;59647;55.838;37.292;2022-07-10T08:20:33;28.01;48.93
71801;HTU21D;59647;55.838;37.292;2022-07-10T08:22:59;28.06;48.84
71801;HTU21D;59647;55.838;37.292;2022-07-10T08:25:26;28.06;48.88
71801;HTU21D;59647;55.838;37.292;2022-07-10T08:27:52;28.03;48.64
71801;HTU21D;59647;55.838;37.292;2022-07-10T08:30:18;27.93;48.00
71801;HTU21D;59647;55.838;37.292;2022-07-10T08:32:44;27.86;48.47
71801;HTU21D;59647;55.838;37.292;2022-07-10T08:35:11;27.79;47.92
71801;HTU21D;59647;55.838;37.292;2022-07-10T08:37:42;27.66;48.18
71801;HTU21D;59647;55.838;37.292;2022-07-10T08:40:09;27.47;48.43
71801;HTU21D;59647;55.838;37.292;2022-07-10T08:42:36;27.34;48.72
71801;HTU21D;59647;55.838;37.292;2022-07-10T08:45:02;27.26;49.00
71801;HTU21D;59647;55.838;37.292;2022-07-10T08:47:29;27.20;49.27
71801;HTU21D;59647;55.838;37.292;2022-07-10T08:49:57;27.15;49.39
71801;HTU21D;59647;55.838;37.292;2022-07-10T08:52:42;27.09;49.01
71801;HTU21D;59647;55.838;37.292;2022-07-10T08:55:13;27.12;48.51
71801;HTU21D;59647;55.838;37.292;2022-07-10T08:57:42;27.12;49.02
71801;HTU21D;59647;55.838;37.292;2022-07-10T09:00:09;27.17;49.37
71801;HTU21D;59647;55.838;37.292;2022-07-10T09:02:35;27.21;49.12
71801;HTU21D;59647;55.838;37.292;2022-07-10T09:05:01;27.23;49.11
71801;HTU21D;59647;55.838;37.292;2022-07-10T09:07:36;27.29;48.52
71801;HTU21D;59647;55.838;37.292;2022-07-10T09:10:07;27.39;48.57
71801;HTU21D;59647;55.838;37.292;2022-07-10T09:13:06;27.47;48.08
71801;HTU21D;59647;55.838;37.292;2022-07-10T09:15:33;27.64;48.63
71801;HTU21D;59647;55.838;37.292;2022-07-10T09:18:04;27.75;48.36
71801;HTU21D;59647;55.838;37.292;2022-07-10T09:20:38;27.91;48.05
71801;HTU21D;59647;55.838;37.292;2022-07-10T09:23:22;27.95;46.38
71801;HTU21D;59647;55.838;37.292;2022-07-10T09:25:52;27.99;47.70
71801;HTU21D;59647;55.838;37.292;2022-07-10T09:28:20;28.01;47.20
71801;HTU21D;59647;55.838;37.292;2022-07-10T09:30:46;28.03;47.83
71801;HTU21D;59647;55.838;37.292;2022-07-10T09:33:23;28.12;47.52
71801;HTU21D;59647;55.838;37.292;2022-07-10T09:36:11;28.16;46.56
71801;HTU21D;59647;55.838;37.292;2022-07-10T09:41:26;28.19;46.84
71801;HTU21D;59647;55.838;37.292;2022-07-10T09:46:39;28.28;46.17
71801;HTU21D;59647;55.838;37.292;2022-07-10T09:49:09;28.47;47.31
71801;HTU21D;59647;55.838;37.292;2022-07-10T09:51:38;28.87;46.68
71801;HTU21D;59647;55.838;37.292;2022-07-10T09:54:07;29.32;46.58
71801;HTU21D;59647;55.838;37.292;2022-07-10T09:56:39;29.60;43.26
71801;HTU21D;59647;55.838;37.292;2022-07-10T09:59:13;29.87;43.61
71801;HTU21D;59647;55.838;37.292;2022-07-10T10:01:48;30.16;43.04
71801;HTU21D;59647;55.838;37.292;2022-07-10T10:04:19;30.47;43.71
71801;HTU21D;59647;55.838;37.292;2022-07-10T10:06:53;30.76;42.22
71801;HTU21D;59647;55.838;37.292;2022-07-10T10:09:24;31.06;39.33
71801;HTU21D;59647;55.838;37.292;2022-07-10T10:11:56;31.18;35.78
71801;HTU21D;59647;55.838;37.292;2022-07-10T10:14:24;31.14;37.41
71801;HTU21D;59647;55.838;37.292;2022-07-10T10:16:55;31.29;41.78
71801;HTU21D;59647;55.838;37.292;2022-07-10T10:19:23;31.52;38.96
71801;HTU21D;59647;55.838;37.292;2022-07-10T10:22:08;31.63;40.23
71801;HTU21D;59647;55.838;37.292;2022-07-10T10:24:36;31.76;37.41
71801;HTU21D;59647;55.838;37.292;2022-07-10T10:27:05;31.96;38.90
71801;HTU21D;59647;55.838;37.292;2022-07-10T10:29:34;32.08;39.86
71801;HTU21D;59647;55.838;37.292;2022-07-10T10:32:01;32.18;38.72
71801;HTU21D;59647;55.838;37.292;2022-07-10T10:34:47;32.04;35.67
71801;HTU21D;59647;55.838;37.292;2022-07-10T10:37:28;32.09;37.71
71801;HTU21D;59647;55.838;37.292;2022-07-10T10:39:59;32.33;36.65
71801;HTU21D;59647;55.838;37.292;2022-07-10T10:42:43;32.43;35.15
71801;HTU21D;59647;55.838;37.292;2022-07-10T10:45:33;32.47;33.29
71801;HTU21D;59647;55.838;37.292;2022-07-10T10:48:08;32.66;32.15
71801;HTU21D;59647;55.838;37.292;2022-07-10T10:50:45;32.92;35.03
71801;HTU21D;59647;55.838;37.292;2022-07-10T10:53:24;33.32;31.95
71801;HTU21D;59647;55.838;37.292;2022-07-10T10:58:27;33.07;35.20
71801;HTU21D;59647;55.838;37.292;2022-07-10T11:01:24;33.09;33.85
71801;HTU21D;59647;55.838;37.292;2022-07-10T11:04:13;33.33;33.79
71801;HTU21D;59647;55.838;37.292;2022-07-10T11:06:52;33.67;33.70
71801;HTU21D;59647;55.838;37.292;2022-07-10T11:09:29;33.91;33.25
71801;HTU21D;59647;55.838;37.292;2022-07-10T11:12:06;34.19;33.17
71801;HTU21D;59647;55.838;37.292;2022-07-10T11:14:44;34.41;33.89
71801;HTU21D;59647;55.838;37.292;2022-07-10T11:17:10;34.37;33.53
71801;HTU21D;59647;55.838;37.292;2022-07-10T11:19:36;34.30;33.83
71801;HTU21D;59647;55.838;37.292;2022-07-10T11:25:10;34.14;30.42
71801;HTU21D;59647;55.838;37.292;2022-07-10T11:28:05;34.36;29.03
71801;HTU21D;59647;55.838;37.292;2022-07-10T11:30:51;34.54;28.61
71801;HTU21D;59647;55.838;37.292;2022-07-10T11:33:19;34.67;32.83
71801;HTU21D;59647;55.838;37.292;2022-07-10T11:35:51;34.66;30.85
71801;HTU21D;59647;55.838;37.292;2022-07-10T11:38:25;34.53;28.00
71801;HTU21D;59647;55.838;37.292;2022-07-10T11:40:51;34.52;30.69
71801;HTU21D;59647;55.838;37.292;2022-07-10T11:43:22;34.51;31.38
71801;HTU21D;59647;55.838;37.292;2022-07-10T11:45:51;34.40;31.71
71801;HTU21D;59647;55.838;37.292;2022-07-10T11:48:27;34.35;28.16
71801;HTU21D;59647;55.838;37.292;2022-07-10T11:50:53;34.39;31.45
71801;HTU21D;59647;55.838;37.292;2022-07-10T11:53:25;34.44;31.06
71801;HTU21D;59647;55.838;37.292;2022-07-10T11:55:52;34.55;31.48
71801;HTU21D;59647;55.838;37.292;2022-07-10T11:58:20;34.73;31.88
71801;HTU21D;59647;55.838;37.292;2022-07-10T12:01:01;34.89;29.39
71801;HTU21D;59647;55.838;37.292;2022-07-10T12:03:43;34.95;30.95
71801;HTU21D;59647;55.838;37.292;2022-07-10T12:06:11;35.03;30.64
71801;HTU21D;59647;55.838;37.292;2022-07-10T12:08:44;35.20;29.07
71801;HTU21D;59647;55.838;37.292;2022-07-10T12:11:12;35.39;30.69
71801;HTU21D;59647;55.838;37.292;2022-07-10T12:13:40;35.54;30.76
71801;HTU21D;59647;55.838;37.292;2022-07-10T12:16:06;35.50;30.53
71801;HTU21D;59647;55.838;37.292;2022-07-10T12:18:33;35.42;30.58
71801;HTU21D;59647;55.838;37.292;2022-07-10T12:21:03;35.35;30.38
71801;HTU21D;59647;55.838;37.292;2022-07-10T12:23:30;35.35;30.63
71801;HTU21D;59647;55.838;37.292;2022-07-10T12:25:56;35.42;30.19
71801;HTU21D;59647;55.838;37.292;2022-07-10T12:28:23;35.45;30.25
71801;HTU21D;59647;55.838;37.292;2022-07-10T12:30:51;35.51;29.80
71801;HTU21D;59647;55.838;37.292;2022-07-10T12:33:20;35.53;30.48
71801;HTU21D;59647;55.838;37.292;2022-07-10T12:35:57;35.34;28.55
71801;HTU21D;59647;55.838;37.292;2022-07-10T12:38:27;35.09;30.28
71801;HTU21D;59647;55.838;37.292;2022-07-10T12:41:11;34.88;29.56
71801;HTU21D;59647;55.838;37.292;2022-07-10T12:43:39;34.88;30.83
71801;HTU21D;59647;55.838;37.292;2022-07-10T12:46:23;34.74;30.01
71801;HTU21D;59647;55.838;37.292;2022-07-10T12:49:03;34.74;29.68
71801;HTU21D;59647;55.838;37.292;2022-07-10T12:51:31;34.70;29.68
71801;HTU21D;59647;55.838;37.292;2022-07-10T12:54:00;34.71;31.26
71801;HTU21D;59647;55.838;37.292;2022-07-10T12:56:32;34.80;30.55
71801;HTU21D;59647;55.838;37.292;2022-07-10T12:58:59;34.92;31.45
71801;HTU21D;59647;55.838;37.292;2022-07-10T13:01:29;35.07;30.83
71801;HTU21D;59647;55.838;37.292;2022-07-10T13:04:06;35.29;30.68
71801;HTU21D;59647;55.838;37.292;2022-07-10T13:06:32;35.29;30.46
71801;HTU21D;59647;55.838;37.292;2022-07-10T13:11:45;35.42;30.11
71801;HTU21D;59647;55.838;37.292;2022-07-10T13:14:12;35.42;29.89
71801;HTU21D;59647;55.838;37.292;2022-07-10T13:16:38;35.50;30.39
71801;HTU21D;59647;55.838;37.292;2022-07-10T13:19:03;35.58;30.48
71801;HTU21D;59647;55.838;37.292;2022-07-10T13:21:33;35.60;30.18
71801;HTU21D;59647;55.838;37.292;2022-07-10T13:24:01;35.73;30.45
71801;HTU21D;59647;55.838;37.292;2022-07-10T13:26:29;35.65;26.10
71801;HTU21D;59647;55.838;37.292;2022-07-10T13:28:56;35.27;29.60
71801;HTU21D;59647;55.838;37.292;2022-07-10T13:31:23;35.18;30.26
71801;HTU21D;59647;55.838;37.292;2022-07-10T13:33:51;35.11;30.31
71801;HTU21D;59647;55.838;37.292;2022-07-10T13:36:20;35.21;30.48
71801;HTU21D;59647;55.838;37.292;2022-07-10T13:38:48;35.25;29.72
71801;HTU21D;59647;55.838;37.292;2022-07-10T13:41:16;35.19;28.99
71801;HTU21D;59647;55.838;37.292;2022-07-10T13:43:42;35.01;30.04
71801;HTU21D;59647;55.838;37.292;2022-07-10T13:46:08;34.92;30.17
71801;HTU21D;59647;55.838;37.292;2022-07-10T13:48:36;34.81;30.03
71801;HTU21D;59647;55.838;37.292;2022-07-10T13:51:02;34.76;30.37
71801;HTU21D;59647;55.838;37.292;2022-07-10T13:53:29;34.60;30.42
71801;HTU21D;59647;55.838;37.292;2022-07-10T13:55:54;34.47;30.48
71801;HTU21D;59647;55.838;37.292;2022-07-10T13:58:20;34.19;30.44
71801;HTU21D;59647;55.838;37.292;2022-07-10T14:00:48;33.99;30.62
71801;HTU21D;59647;55.838;37.292;2022-07-10T14:03:16;33.76;30.78
71801;HTU21D;59647;55.838;37.292;2022-07-10T14:05:42;33.56;31.07
71801;HTU21D;59647;55.838;37.292;2022-07-10T14:08:08;33.37;31.26
71801;HTU21D;59647;55.838;37.292;2022-07-10T14:10:35;33.14;31.47
71801;HTU21D;59647;55.838;37.292;2022-07-10T14:13:02;32.96;31.90
71801;HTU21D;59647;55.838;37.292;2022-07-10T14:15:28;32.81;32.00
71801;HTU21D;59647;55.838;37.292;2022-07-10T14:17:54;32.54;31.47
71801;HTU21D;59647;55.838;37.292;2022-07-10T14:20:21;32.27;31.79
71801;HTU21D;59647;55.838;37.292;2022-07-10T14:22:47;32.02;32.22
71801;HTU21D;59647;55.838;37.292;2022-07-10T14:25:13;31.82;32.52
71801;HTU21D;59647;55.838;37.292;2022-07-10T14:27:39;31.57;32.63
71801;HTU21D;59647;55.838;37.292;2022-07-10T14:30:07;31.40;32.96
71801;HTU21D;59647;55.838;37.292;2022-07-10T14:32:33;31.23;32.95
71801;HTU21D;59647;55.838;37.292;2022-07-10T14:34:59;31.07;33.15
71801;HTU21D;59647;55.838;37.292;2022-07-10T14:37:25;30.87;33.47
71801;HTU21D;59647;55.838;37.292;2022-07-10T14:39:53;30.78;33.78
71801;HTU21D;59647;55.838;37.292;2022-07-10T14:42:21;30.66;34.00
71801;HTU21D;59647;55.838;37.292;2022-07-10T15:20:39;23.62;48.78
71801;HTU21D;59647;55.838;37.292;2022-07-10T15:23:05;23.65;48.58
71801;HTU21D;59647;55.838;37.292;2022-07-10T15:25:31;23.57;48.41
71801;HTU21D;59647;55.838;37.292;2022-07-10T15:27:59;23.52;49.34
71801;HTU21D;59647;55.838;37.292;2022-07-10T15:30:28;23.46;48.90
71801;HTU21D;59647;55.838;37.292;2022-07-10T15:32:53;23.43;49.00
71801;HTU21D;59647;55.838;37.292;2022-07-10T15:35:20;23.41;49.04
71801;HTU21D;59647;55.838;37.292;2022-07-10T15:37:46;23.39;49.24
71801;HTU21D;59647;55.838;37.292;2022-07-10T15:40:13;23.34;49.63
71801;HTU21D;59647;55.838;37.292;2022-07-10T15:42:40;23.25;49.57
71801;HTU21D;59647;55.838;37.292;2022-07-10T15:45:06;23.17;50.26
71801;HTU21D;59647;55.838;37.292;2022-07-10T15:47:32;23.10;50.35
71801;HTU21D;59647;55.838;37.292;2022-07-10T15:49:59;22.99;51.04
71801;HTU21D;59647;55.838;37.292;2022-07-10T15:52:25;22.94;50.97
71801;HTU21D;59647;55.838;37.292;2022-07-10T15:54:51;22.91;51.11
71801;HTU21D;59647;55.838;37.292;2022-07-10T15:57:17;22.85;50.91
71801;HTU21D;59647;55.838;37.292;2022-07-10T15:59:43;22.78;51.10